Central Wisconsin Airport Mosinee US
ICAO: KCWA
IATA: CWA
Category: Medium
Scheduled Services: No

Elevation: 1277 ft
TransAlt. 18000 ft.

Airport Communications:
ATIS:127.45
AWOS 3:127.45
MINNEAPOLIS CNTR:124.4
CTAF:119.75
GND:121.9
GREEN BAY RDO:122.525
TWR:119.75
UNICOM:122.95

KCWA Zoom In..

If you have problems with the map follow the link
https://www.worldairports.se/pages/airport.php?
ICAO=KCWA

Runways:

(A) RW 08 length 7648 ft width 150 ft
ILS 110.30 / hdg 77

(B) RW 17 length 6501 ft width 150 ft
---- / hdg 170

(C) RW 26 length 7648 ft width 150 ft
---- / hdg 257

(D) RW 35 length 6501 ft width 150 ft
ILS 110.90 / hdg 350

Location; KCWA
Day. 22 / Time. 15.55 Zulu
* Altimeter: 30.40
* Temperature: -11° c. -12.2°f.
* Wind from: 170° Speed 04 kn.
Dewpoint: -12° c.
Visibility: 7 Statute Miles.
Clouds: Clear (manual report).

KCWA 221555Z 17004KT 7SM SKC M11/M12 A3040


Wind From 170°
Speed 04 kn.

 
 
jpsmedia.com for Web Design worldairports.se 2019   terms of use